sensor_id;sensor_type;location;lat;lon;timestamp;pressure;altitude;pressure_sealevel;temperature;humidity
58373;BME280;44177;43.356;27.672;2023-02-26T00:01:17;97089.63;;;12.08;65.07
58373;BME280;44177;43.356;27.672;2023-02-26T00:03:42;97079.06;;;12.06;64.63
58373;BME280;44177;43.356;27.672;2023-02-26T00:06:08;97090.78;;;12.07;64.75
58373;BME280;44177;43.356;27.672;2023-02-26T00:08:34;97073.97;;;12.01;64.93
58373;BME280;44177;43.356;27.672;2023-02-26T00:11:00;97092.75;;;12.06;64.65
58373;BME280;44177;43.356;27.672;2023-02-26T00:13:29;97090.00;;;12.06;64.87
58373;BME280;44177;43.356;27.672;2023-02-26T00:15:58;97088.06;;;12.07;65.11
58373;BME280;44177;43.356;27.672;2023-02-26T00:18:24;97074.00;;;12.08;64.93
58373;BME280;44177;43.356;27.672;2023-02-26T00:20:50;97064.19;;;12.04;65.01
58373;BME280;44177;43.356;27.672;2023-02-26T00:23:16;97074.78;;;12.09;64.60
58373;BME280;44177;43.356;27.672;2023-02-26T00:25:43;97078.69;;;12.08;65.16
58373;BME280;44177;43.356;27.672;2023-02-26T00:28:08;97076.34;;;12.06;64.97
58373;BME280;44177;43.356;27.672;2023-02-26T00:30:34;97074.78;;;12.09;65.13
58373;BME280;44177;43.356;27.672;2023-02-26T00:33:00;97066.97;;;12.07;65.18
58373;BME280;44177;43.356;27.672;2023-02-26T00:35:26;97065.44;;;12.10;64.92
58373;BME280;44177;43.356;27.672;2023-02-26T00:40:48;97072.06;;;12.09;65.15
58373;BME280;44177;43.356;27.672;2023-02-26T00:43:18;97074.78;;;12.09;65.02
58373;BME280;44177;43.356;27.672;2023-02-26T00:51:57;97056.00;;;12.04;65.05
58373;BME280;44177;43.356;27.672;2023-02-26T00:54:25;97064.25;;;12.07;64.82
58373;BME280;44177;43.356;27.672;2023-02-26T00:56:52;97061.13;;;12.09;65.22
58373;BME280;44177;43.356;27.672;2023-02-26T00:59:19;97049.78;;;12.10;65.17
58373;BME280;44177;43.356;27.672;2023-02-26T01:01:45;97060.72;;;12.07;65.33
58373;BME280;44177;43.356;27.672;2023-02-26T01:04:12;97077.94;;;12.11;65.31
58373;BME280;44177;43.356;27.672;2023-02-26T01:06:48;97074.78;;;12.09;65.22
58373;BME280;44177;43.356;27.672;2023-02-26T01:11:42;97051.34;;;12.08;65.23
58373;BME280;44177;43.356;27.672;2023-02-26T01:14:08;97054.50;;;12.10;65.14
58373;BME280;44177;43.356;27.672;2023-02-26T01:16:43;97047.44;;;12.05;65.48
58373;BME280;44177;43.356;27.672;2023-02-26T01:19:26;97032.59;;;12.06;65.42
58373;BME280;44177;43.356;27.672;2023-02-26T01:22:02;97046.66;;;12.12;65.51
58373;BME280;44177;43.356;27.672;2023-02-26T01:24:30;97042.41;;;12.11;65.22
58373;BME280;44177;43.356;27.672;2023-02-26T01:26:58;97021.69;;;12.06;65.36
58373;BME280;44177;43.356;27.672;2023-02-26T01:29:24;97024.41;;;12.10;65.47
58373;BME280;44177;43.356;27.672;2023-02-26T01:32:24;97022.06;;;12.12;65.11
58373;BME280;44177;43.356;27.672;2023-02-26T01:42:42;97038.44;;;12.08;65.15
58373;BME280;44177;43.356;27.672;2023-02-26T01:45:20;97035.72;;;12.08;65.22
58373;BME280;44177;43.356;27.672;2023-02-26T01:47:55;97052.94;;;12.12;65.46
58373;BME280;44177;43.356;27.672;2023-02-26T01:50:24;97043.56;;;12.10;65.14
58373;BME280;44177;43.356;27.672;2023-02-26T01:55:42;97053.72;;;12.13;65.48
58373;BME280;44177;43.356;27.672;2023-02-26T01:58:09;97044.31;;;12.10;65.18
58373;BME280;44177;43.356;27.672;2023-02-26T02:00:34;97063.06;;;12.12;65.49
58373;BME280;44177;43.356;27.672;2023-02-26T02:03:00;97044.72;;;12.09;65.55
58373;BME280;44177;43.356;27.672;2023-02-26T02:05:31;97066.22;;;12.14;65.58
58373;BME280;44177;43.356;27.672;2023-02-26T02:07:59;97075.97;;;12.15;65.50
58373;BME280;44177;43.356;27.672;2023-02-26T02:10:26;97075.94;;;12.08;65.64
58373;BME280;44177;43.356;27.672;2023-02-26T02:15:27;97071.28;;;12.12;65.37
58373;BME280;44177;43.356;27.672;2023-02-26T02:23:54;97084.19;;;12.15;65.71
58373;BME280;44177;43.356;27.672;2023-02-26T02:31:53;97085.75;;;12.16;65.87
58373;BME280;44177;43.356;27.672;2023-02-26T02:36:53;97091.19;;;12.09;65.55
58373;BME280;44177;43.356;27.672;2023-02-26T02:39:28;97095.84;;;12.08;65.58
58373;BME280;44177;43.356;27.672;2023-02-26T02:42:07;97113.09;;;12.16;66.15
58373;BME280;44177;43.356;27.672;2023-02-26T02:44:40;97106.47;;;12.17;65.91
58373;BME280;44177;43.356;27.672;2023-02-26T02:47:09;97079.81;;;11.99;66.03
58373;BME280;44177;43.356;27.672;2023-02-26T02:49:42;97115.44;;;12.18;65.70
58373;BME280;44177;43.356;27.672;2023-02-26T02:52:19;97117.41;;;12.17;66.05
58373;BME280;44177;43.356;27.672;2023-02-26T02:55:12;97111.13;;;12.16;65.96
58373;BME280;44177;43.356;27.672;2023-02-26T02:57:44;97114.25;;;12.15;66.02
58373;BME280;44177;43.356;27.672;2023-02-26T03:00:12;97115.41;;;12.14;65.70
58373;BME280;44177;43.356;27.672;2023-02-26T03:05:30;97142.00;;;12.17;65.71
58373;BME280;44177;43.356;27.672;2023-02-26T03:07:59;97146.66;;;12.16;65.79
58373;BME280;44177;43.356;27.672;2023-02-26T03:10:26;97131.03;;;12.10;65.86
58373;BME280;44177;43.356;27.672;2023-02-26T03:12:51;97134.97;;;12.16;65.74
58373;BME280;44177;43.356;27.672;2023-02-26T03:15:26;97120.88;;;12.10;65.47
58373;BME280;44177;43.356;27.672;2023-02-26T03:20:46;97117.00;;;12.19;65.83
58373;BME280;44177;43.356;27.672;2023-02-26T03:23:27;97115.81;;;12.12;65.44
58373;BME280;44177;43.356;27.672;2023-02-26T03:26:02;97115.84;;;12.20;65.74
58373;BME280;44177;43.356;27.672;2023-02-26T03:28:38;97119.34;;;12.20;65.91
58373;BME280;44177;43.356;27.672;2023-02-26T03:31:16;97117.00;;;12.15;65.70
58373;BME280;44177;43.356;27.672;2023-02-26T03:33:53;97135.38;;;12.18;65.59
58373;BME280;44177;43.356;27.672;2023-02-26T03:39:47;97138.06;;;12.11;65.83
58373;BME280;44177;43.356;27.672;2023-02-26T03:44:46;97150.63;;;12.19;65.78
58373;BME280;44177;43.356;27.672;2023-02-26T03:47:14;97161.53;;;12.19;65.60
58373;BME280;44177;43.356;27.672;2023-02-26T03:49:44;97165.44;;;12.18;65.81
58373;BME280;44177;43.356;27.672;2023-02-26T03:52:11;97163.88;;;12.17;65.80
58373;BME280;44177;43.356;27.672;2023-02-26T03:54:41;97176.75;;;12.16;66.10
58373;BME280;44177;43.356;27.672;2023-02-26T03:57:07;97174.81;;;12.17;66.09
58373;BME280;44177;43.356;27.672;2023-02-26T03:59:33;97177.13;;;12.15;65.86
58373;BME280;44177;43.356;27.672;2023-02-26T04:02:07;97183.00;;;12.17;65.90
58373;BME280;44177;43.356;27.672;2023-02-26T04:05:33;97205.28;;;12.19;66.06
58373;BME280;44177;43.356;27.672;2023-02-26T04:07:40;97203.72;;;12.18;65.71
58373;BME280;44177;43.356;27.672;2023-02-26T04:10:08;97205.66;;;12.18;66.05
58373;BME280;44177;43.356;27.672;2023-02-26T04:12:34;97206.06;;;12.20;66.13
58373;BME280;44177;43.356;27.672;2023-02-26T04:15:00;97211.13;;;12.18;65.79
58373;BME280;44177;43.356;27.672;2023-02-26T04:17:25;97203.31;;;12.16;65.77
58373;BME280;44177;43.356;27.672;2023-02-26T04:19:51;97191.22;;;12.17;65.90
58373;BME280;44177;43.356;27.672;2023-02-26T04:22:16;97215.44;;;12.22;66.02
58373;BME280;44177;43.356;27.672;2023-02-26T04:24:42;97209.97;;;12.22;66.23
58373;BME280;44177;43.356;27.672;2023-02-26T04:27:08;97212.31;;;12.20;66.19
58373;BME280;44177;43.356;27.672;2023-02-26T04:29:33;97208.03;;;12.19;66.05
58373;BME280;44177;43.356;27.672;2023-02-26T04:31:59;97218.56;;;12.21;66.25
58373;BME280;44177;43.356;27.672;2023-02-26T04:34:25;97224.06;;;12.24;66.10
58373;BME280;44177;43.356;27.672;2023-02-26T04:36:50;97230.28;;;12.21;65.88
58373;BME280;44177;43.356;27.672;2023-02-26T04:39:16;97231.09;;;12.22;66.19
58373;BME280;44177;43.356;27.672;2023-02-26T04:41:41;97238.13;;;12.23;65.83
58373;BME280;44177;43.356;27.672;2023-02-26T04:44:07;97247.88;;;12.24;65.77
58373;BME280;44177;43.356;27.672;2023-02-26T04:46:32;97241.63;;;12.23;66.02
58373;BME280;44177;43.356;27.672;2023-02-26T04:48:58;97249.06;;;12.23;65.87
58373;BME280;44177;43.356;27.672;2023-02-26T04:51:24;97257.25;;;12.23;66.30
58373;BME280;44177;43.356;27.672;2023-02-26T04:53:49;97260.38;;;12.25;66.23
58373;BME280;44177;43.356;27.672;2023-02-26T04:56:15;97250.59;;;12.20;65.91
58373;BME280;44177;43.356;27.672;2023-02-26T04:58:41;97255.72;;;12.25;65.97
58373;BME280;44177;43.356;27.672;2023-02-26T05:01:06;97265.06;;;12.24;65.70
58373;BME280;44177;43.356;27.672;2023-02-26T05:03:32;97270.53;;;12.24;66.03
58373;BME280;44177;43.356;27.672;2023-02-26T05:05:57;97285.78;;;12.25;66.22
58373;BME280;44177;43.356;27.672;2023-02-26T05:08:23;97280.31;;;12.22;66.19
58373;BME280;44177;43.356;27.672;2023-02-26T05:10:50;97296.72;;;12.25;66.08
58373;BME280;44177;43.356;27.672;2023-02-26T05:13:15;97282.66;;;12.23;66.52
58373;BME280;44177;43.356;27.672;2023-02-26T05:15:40;97286.94;;;12.24;66.21
58373;BME280;44177;43.356;27.672;2023-02-26T05:18:06;97284.97;;;12.21;66.37
58373;BME280;44177;43.356;27.672;2023-02-26T05:20:31;97284.19;;;12.21;66.33
58373;BME280;44177;43.356;27.672;2023-02-26T05:22:57;97297.47;;;12.22;66.12
58373;BME280;44177;43.356;27.672;2023-02-26T05:25:23;97311.56;;;12.24;66.39
58373;BME280;44177;43.356;27.672;2023-02-26T05:27:48;97299.06;;;12.27;66.51
58373;BME280;44177;43.356;27.672;2023-02-26T05:30:15;97291.66;;;12.27;66.56
58373;BME280;44177;43.356;27.672;2023-02-26T05:32:41;97307.66;;;12.25;66.06
58373;BME280;44177;43.356;27.672;2023-02-26T05:35:07;97297.13;;;12.27;66.33
58373;BME280;44177;43.356;27.672;2023-02-26T05:37:33;97289.69;;;12.24;66.08
58373;BME280;44177;43.356;27.672;2023-02-26T05:39:58;97299.84;;;12.27;66.44
58373;BME280;44177;43.356;27.672;2023-02-26T05:42:23;97308.47;;;12.29;66.20
58373;BME280;44177;43.356;27.672;2023-02-26T05:44:49;97307.28;;;12.27;66.18
58373;BME280;44177;43.356;27.672;2023-02-26T05:47:15;97315.09;;;12.28;66.00
58373;BME280;44177;43.356;27.672;2023-02-26T05:49:41;97296.34;;;12.27;66.28
58373;BME280;44177;43.356;27.672;2023-02-26T05:52:07;97306.88;;;12.28;65.97
58373;BME280;44177;43.356;27.672;2023-02-26T05:54:33;97304.53;;;12.23;66.44
58373;BME280;44177;43.356;27.672;2023-02-26T05:56:58;97300.22;;;12.22;66.00
58373;BME280;44177;43.356;27.672;2023-02-26T05:59:24;97302.97;;;12.26;65.96
58373;BME280;44177;43.356;27.672;2023-02-26T06:01:49;97323.28;;;12.28;66.42
58373;BME280;44177;43.356;27.672;2023-02-26T06:04:15;97309.22;;;12.23;65.98
58373;BME280;44177;43.356;27.672;2023-02-26T06:06:40;97322.53;;;12.28;65.92
58373;BME280;44177;43.356;27.672;2023-02-26T06:09:07;97336.22;;;12.31;66.00
58373;BME280;44177;43.356;27.672;2023-02-26T06:11:33;97323.28;;;12.28;66.22
58373;BME280;44177;43.356;27.672;2023-02-26T06:13:58;97327.19;;;12.27;66.22
58373;BME280;44177;43.356;27.672;2023-02-26T06:16:24;97340.91;;;12.31;66.24
58373;BME280;44177;43.356;27.672;2023-02-26T06:18:50;97336.63;;;12.30;66.15
58373;BME280;44177;43.356;27.672;2023-02-26T06:21:16;97338.56;;;12.33;66.15
58373;BME280;44177;43.356;27.672;2023-02-26T06:23:43;97346.00;;;12.32;65.99
58373;BME280;44177;43.356;27.672;2023-02-26T06:26:08;97335.78;;;12.26;66.03
58373;BME280;44177;43.356;27.672;2023-02-26T06:28:34;97365.13;;;12.29;66.28
58373;BME280;44177;43.356;27.672;2023-02-26T06:30:59;97372.94;;;12.30;65.99
58373;BME280;44177;43.356;27.672;2023-02-26T06:33:25;97378.41;;;12.30;66.03
58373;BME280;44177;43.356;27.672;2023-02-26T06:35:51;97371.34;;;12.29;66.24
58373;BME280;44177;43.356;27.672;2023-02-26T06:38:17;97376.09;;;12.32;66.07
58373;BME280;44177;43.356;27.672;2023-02-26T06:40:43;97364.72;;;12.30;65.77
58373;BME280;44177;43.356;27.672;2023-02-26T06:43:08;97349.06;;;12.27;66.01
58373;BME280;44177;43.356;27.672;2023-02-26T06:45:34;97341.28;;;12.29;66.08
58373;BME280;44177;43.356;27.672;2023-02-26T06:48:00;97355.78;;;12.34;66.41
58373;BME280;44177;43.356;27.672;2023-02-26T06:50:26;97321.72;;;12.27;66.42
58373;BME280;44177;43.356;27.672;2023-02-26T06:52:51;97335.41;;;12.27;66.30
58373;BME280;44177;43.356;27.672;2023-02-26T06:55:17;97365.56;;;12.35;66.37
58373;BME280;44177;43.356;27.672;2023-02-26T06:57:42;97347.56;;;12.34;66.37
58373;BME280;44177;43.356;27.672;2023-02-26T07:00:08;97342.09;;;12.34;66.34
58373;BME280;44177;43.356;27.672;2023-02-26T07:02:34;97333.50;;;12.35;66.15
58373;BME280;44177;43.356;27.672;2023-02-26T07:05:00;97331.56;;;12.36;66.26
58373;BME280;44177;43.356;27.672;2023-02-26T07:07:25;97328.81;;;12.36;66.74
58373;BME280;44177;43.356;27.672;2023-02-26T07:09:51;97340.94;;;12.35;66.18
58373;BME280;44177;43.356;27.672;2023-02-26T07:12:16;97334.25;;;12.32;66.38
58373;BME280;44177;43.356;27.672;2023-02-26T07:14:42;97334.25;;;12.32;66.41
58373;BME280;44177;43.356;27.672;2023-02-26T07:17:08;97333.09;;;12.33;66.70
58373;BME280;44177;43.356;27.672;2023-02-26T07:19:34;97326.88;;;12.32;66.61
58373;BME280;44177;43.356;27.672;2023-02-26T07:21:59;97331.56;;;12.36;66.41
58373;BME280;44177;43.356;27.672;2023-02-26T07:24:25;97323.75;;;12.34;66.69
58373;BME280;44177;43.356;27.672;2023-02-26T07:26:50;97325.69;;;12.30;66.53
58373;BME280;44177;43.356;27.672;2023-02-26T07:29:16;97321.81;;;12.35;66.50
58373;BME280;44177;43.356;27.672;2023-02-26T07:31:42;97324.16;;;12.36;66.71
58373;BME280;44177;43.356;27.672;2023-02-26T07:34:07;97324.16;;;12.36;66.66
58373;BME280;44177;43.356;27.672;2023-02-26T07:36:32;97322.19;;;12.37;66.57
58373;BME280;44177;43.356;27.672;2023-02-26T07:38:58;97319.41;;;12.29;66.53
58373;BME280;44177;43.356;27.672;2023-02-26T07:41:23;97334.69;;;12.38;66.55
58373;BME280;44177;43.356;27.672;2023-02-26T07:43:49;97333.13;;;12.37;66.82
58373;BME280;44177;43.356;27.672;2023-02-26T07:46:14;97339.00;;;12.39;66.69
58373;BME280;44177;43.356;27.672;2023-02-26T07:48:40;97341.75;;;12.39;66.80
58373;BME280;44177;43.356;27.672;2023-02-26T07:51:05;97345.25;;;12.39;66.45
58373;BME280;44177;43.356;27.672;2023-02-26T07:53:33;97346.81;;;12.37;66.36
58373;BME280;44177;43.356;27.672;2023-02-26T07:55:58;97330.41;;;12.37;66.63
58373;BME280;44177;43.356;27.672;2023-02-26T07:58:24;97339.44;;;12.41;66.43
58373;BME280;44177;43.356;27.672;2023-02-26T08:00:49;97346.84;;;12.44;66.80
58373;BME280;44177;43.356;27.672;2023-02-26T08:03:17;97339.44;;;12.41;66.63
58373;BME280;44177;43.356;27.672;2023-02-26T08:05:43;97330.06;;;12.42;66.65
58373;BME280;44177;43.356;27.672;2023-02-26T08:08:08;97332.78;;;12.42;66.41
58373;BME280;44177;43.356;27.672;2023-02-26T08:10:34;97338.66;;;12.44;66.33
58373;BME280;44177;43.356;27.672;2023-02-26T08:12:59;97333.56;;;12.42;66.48
58373;BME280;44177;43.356;27.672;2023-02-26T08:15:25;97337.09;;;12.43;66.22
58373;BME280;44177;43.356;27.672;2023-02-26T08:17:53;97333.56;;;12.42;66.64
58373;BME280;44177;43.356;27.672;2023-02-26T08:20:22;97333.97;;;12.44;66.46
58373;BME280;44177;43.356;27.672;2023-02-26T08:22:49;97348.06;;;12.46;66.19
58373;BME280;44177;43.356;27.672;2023-02-26T08:25:15;97341.78;;;12.46;66.12
58373;BME280;44177;43.356;27.672;2023-02-26T08:27:40;97349.25;;;12.49;66.33
58373;BME280;44177;43.356;27.672;2023-02-26T08:30:09;97335.88;;;12.40;66.50
58373;BME280;44177;43.356;27.672;2023-02-26T08:32:34;97311.69;;;12.42;66.29
58373;BME280;44177;43.356;27.672;2023-02-26T08:35:00;97320.31;;;12.44;66.39
58373;BME280;44177;43.356;27.672;2023-02-26T08:37:26;97325.00;;;12.47;65.96
58373;BME280;44177;43.356;27.672;2023-02-26T08:39:52;97327.75;;;12.51;65.96
58373;BME280;44177;43.356;27.672;2023-02-26T08:42:17;97334.41;;;12.50;66.02
58373;BME280;44177;43.356;27.672;2023-02-26T08:44:45;97325.44;;;12.53;66.17
58373;BME280;44177;43.356;27.672;2023-02-26T08:47:11;97339.09;;;12.53;65.96
58373;BME280;44177;43.356;27.672;2023-02-26T08:49:37;97343.41;;;12.54;65.99
58373;BME280;44177;43.356;27.672;2023-02-26T08:52:02;97345.41;;;12.57;66.00
58373;BME280;44177;43.356;27.672;2023-02-26T08:54:28;97351.25;;;12.56;66.04
58373;BME280;44177;43.356;27.672;2023-02-26T08:56:53;97348.13;;;12.57;65.81
58373;BME280;44177;43.356;27.672;2023-02-26T08:59:22;97343.06;;;12.59;66.20
58373;BME280;44177;43.356;27.672;2023-02-26T09:01:48;97357.94;;;12.62;66.06
58373;BME280;44177;43.356;27.672;2023-02-26T09:04:13;97358.31;;;12.64;65.85
58373;BME280;44177;43.356;27.672;2023-02-26T09:06:39;97365.00;;;12.67;65.96
58373;BME280;44177;43.356;27.672;2023-02-26T09:09:04;97375.19;;;12.70;65.87
58373;BME280;44177;43.356;27.672;2023-02-26T09:11:30;97376.75;;;12.71;65.93
58373;BME280;44177;43.356;27.672;2023-02-26T09:13:57;97373.59;;;12.69;65.78
58373;BME280;44177;43.356;27.672;2023-02-26T09:16:27;97375.97;;;12.70;65.85
58373;BME280;44177;43.356;27.672;2023-02-26T09:18:53;97377.91;;;12.70;65.84
58373;BME280;44177;43.356;27.672;2023-02-26T09:21:19;97376.34;;;12.69;66.16
58373;BME280;44177;43.356;27.672;2023-02-26T09:23:44;97375.22;;;12.73;66.07
58373;BME280;44177;43.356;27.672;2023-02-26T09:26:09;97374.78;;;12.71;65.96
58373;BME280;44177;43.356;27.672;2023-02-26T09:28:35;97376.78;;;12.74;65.91
58373;BME280;44177;43.356;27.672;2023-02-26T09:31:00;97409.22;;;12.76;65.77
58373;BME280;44177;43.356;27.672;2023-02-26T09:33:26;97383.84;;;12.79;65.40
58373;BME280;44177;43.356;27.672;2023-02-26T09:35:51;97383.09;;;12.82;65.19
58373;BME280;44177;43.356;27.672;2023-02-26T09:38:18;97387.38;;;12.83;65.34
58373;BME280;44177;43.356;27.672;2023-02-26T09:41:02;97397.16;;;12.84;65.23
58373;BME280;44177;43.356;27.672;2023-02-26T09:43:44;97388.97;;;12.84;65.28
58373;BME280;44177;43.356;27.672;2023-02-26T09:49:04;97391.31;;;12.82;65.57
58373;BME280;44177;43.356;27.672;2023-02-26T09:51:33;97397.94;;;12.81;65.52
58373;BME280;44177;43.356;27.672;2023-02-26T09:54:02;97387.78;;;12.82;65.29
58373;BME280;44177;43.356;27.672;2023-02-26T09:56:33;97387.78;;;12.85;65.48
58373;BME280;44177;43.356;27.672;2023-02-26T09:59:01;97385.84;;;12.82;65.27
58373;BME280;44177;43.356;27.672;2023-02-26T10:02:01;97392.50;;;12.85;65.20
58373;BME280;44177;43.356;27.672;2023-02-26T10:10:32;97372.94;;;12.86;65.44
58373;BME280;44177;43.356;27.672;2023-02-26T10:12:35;97369.78;;;12.84;65.42
58373;BME280;44177;43.356;27.672;2023-02-26T10:15:24;97364.31;;;12.84;65.63
58373;BME280;44177;43.356;27.672;2023-02-26T10:25:47;97357.66;;;12.82;65.73
58373;BME280;44177;43.356;27.672;2023-02-26T10:31:23;97367.84;;;12.81;65.51
58373;BME280;44177;43.356;27.672;2023-02-26T10:33:55;97372.16;;;12.82;65.60
58373;BME280;44177;43.356;27.672;2023-02-26T10:36:29;97360.41;;;12.82;65.57
58373;BME280;44177;43.356;27.672;2023-02-26T10:39:15;97347.09;;;12.80;65.51
58373;BME280;44177;43.356;27.672;2023-02-26T10:41:42;97337.72;;;12.77;65.86
58373;BME280;44177;43.356;27.672;2023-02-26T10:46:53;97335.72;;;12.74;65.83
58373;BME280;44177;43.356;27.672;2023-02-26T10:49:46;97344.78;;;12.82;65.96
58373;BME280;44177;43.356;27.672;2023-02-26T10:52:17;97351.41;;;12.77;65.72
58373;BME280;44177;43.356;27.672;2023-02-26T10:57:41;97356.50;;;12.83;65.71
58373;BME280;44177;43.356;27.672;2023-02-26T11:00:15;97359.25;;;12.83;65.83
58373;BME280;44177;43.356;27.672;2023-02-26T11:02:44;97351.81;;;12.83;65.65
58373;BME280;44177;43.356;27.672;2023-02-26T11:05:19;97344.78;;;12.82;65.60
58373;BME280;44177;43.356;27.672;2023-02-26T11:07:49;97339.31;;;12.82;65.70
58373;BME280;44177;43.356;27.672;2023-02-26T11:10:20;97339.31;;;12.82;65.97
58373;BME280;44177;43.356;27.672;2023-02-26T11:12:47;97342.38;;;12.77;65.80
58373;BME280;44177;43.356;27.672;2023-02-26T11:15:19;97342.38;;;12.77;65.69
58373;BME280;44177;43.356;27.672;2023-02-26T11:17:47;97351.81;;;12.83;66.02
58373;BME280;44177;43.356;27.672;2023-02-26T11:22:47;97341.63;;;12.80;66.05
58373;BME280;44177;43.356;27.672;2023-02-26T11:25:17;97336.94;;;12.80;66.06
58373;BME280;44177;43.356;27.672;2023-02-26T11:27:47;97358.06;;;12.80;65.75
58373;BME280;44177;43.356;27.672;2023-02-26T11:30:19;97354.53;;;12.83;66.07
58373;BME280;44177;43.356;27.672;2023-02-26T11:32:50;97351.41;;;12.77;66.23
58373;BME280;44177;43.356;27.672;2023-02-26T11:35:17;97363.56;;;12.84;65.64
58373;BME280;44177;43.356;27.672;2023-02-26T11:37:49;97358.84;;;12.84;65.79
58373;BME280;44177;43.356;27.672;2023-02-26T11:40:25;97353.38;;;12.84;66.04
58373;BME280;44177;43.356;27.672;2023-02-26T11:43:04;97361.19;;;12.82;65.91
58373;BME280;44177;43.356;27.672;2023-02-26T11:45:34;97369.78;;;12.80;65.79
58373;BME280;44177;43.356;27.672;2023-02-26T11:48:03;97378.00;;;12.84;66.04
58373;BME280;44177;43.356;27.672;2023-02-26T11:50:37;97374.88;;;12.82;66.18
58373;BME280;44177;43.356;27.672;2023-02-26T11:53:05;97375.66;;;12.83;66.19
58373;BME280;44177;43.356;27.672;2023-02-26T11:55:36;97391.66;;;12.80;66.19
58373;BME280;44177;43.356;27.672;2023-02-26T11:58:04;97393.25;;;12.82;65.80
58373;BME280;44177;43.356;27.672;2023-02-26T12:00:39;97400.69;;;12.81;66.05
58373;BME280;44177;43.356;27.672;2023-02-26T12:03:23;97387.00;;;12.81;66.08
58373;BME280;44177;43.356;27.672;2023-02-26T12:05:50;97398.31;;;12.83;65.95
58373;BME280;44177;43.356;27.672;2023-02-26T12:08:24;97402.63;;;12.84;66.14
58373;BME280;44177;43.356;27.672;2023-02-26T12:13:26;97395.59;;;12.83;66.16
58373;BME280;44177;43.356;27.672;2023-02-26T12:16:18;97401.88;;;12.84;65.81
58373;BME280;44177;43.356;27.672;2023-02-26T12:34:50;97400.31;;;12.86;66.17
58373;BME280;44177;43.356;27.672;2023-02-26T12:40:23;97391.34;;;12.86;66.04
58373;BME280;44177;43.356;27.672;2023-02-26T12:53:57;97383.88;;;12.83;66.08
58373;BME280;44177;43.356;27.672;2023-02-26T13:02:37;97366.69;;;12.86;66.47
58373;BME280;44177;43.356;27.672;2023-02-26T13:08:16;97331.78;;;12.64;66.37
58373;BME280;44177;43.356;27.672;2023-02-26T13:21:33;97325.91;;;12.66;66.31
58373;BME280;44177;43.356;27.672;2023-02-26T13:24:43;97365.91;;;12.85;66.48
58373;BME280;44177;43.356;27.672;2023-02-26T13:27:11;97360.41;;;12.82;66.21
58373;BME280;44177;43.356;27.672;2023-02-26T13:29:47;97362.00;;;12.86;66.40
58373;BME280;44177;43.356;27.672;2023-02-26T13:32:18;97363.97;;;12.86;66.28
58373;BME280;44177;43.356;27.672;2023-02-26T13:35:05;97351.03;;;12.86;66.36
58373;BME280;44177;43.356;27.672;2023-02-26T13:37:39;97350.63;;;12.84;66.61
58373;BME280;44177;43.356;27.672;2023-02-26T13:51:12;97357.69;;;12.85;66.62
58373;BME280;44177;43.356;27.672;2023-02-26T13:58:43;97376.84;;;12.85;66.63
58373;BME280;44177;43.356;27.672;2023-02-26T14:01:16;97367.06;;;12.84;66.79
58373;BME280;44177;43.356;27.672;2023-02-26T14:03:47;97358.06;;;12.84;66.90
58373;BME280;44177;43.356;27.672;2023-02-26T14:09:04;97379.59;;;12.85;66.47
58373;BME280;44177;43.356;27.672;2023-02-26T14:19:39;97370.59;;;12.85;66.70
58373;BME280;44177;43.356;27.672;2023-02-26T14:27:39;97387.78;;;12.85;66.66
58373;BME280;44177;43.356;27.672;2023-02-26T14:35:32;97369.78;;;12.84;66.48
58373;BME280;44177;43.356;27.672;2023-02-26T14:38:05;97386.22;;;12.84;66.79
58373;BME280;44177;43.356;27.672;2023-02-26T14:41:24;97381.91;;;12.83;66.79
58373;BME280;44177;43.356;27.672;2023-02-26T14:43:35;97387.38;;;12.83;67.02
58373;BME280;44177;43.356;27.672;2023-02-26T14:46:02;97388.97;;;12.84;66.68
58373;BME280;44177;43.356;27.672;2023-02-26T14:48:29;97401.47;;;12.85;66.96
58373;BME280;44177;43.356;27.672;2023-02-26T15:23:58;97403.06;;;12.86;66.92
58373;BME280;44177;43.356;27.672;2023-02-26T15:26:30;97414.75;;;12.83;66.92
58373;BME280;44177;43.356;27.672;2023-02-26T15:29:04;97427.69;;;12.86;66.93
58373;BME280;44177;43.356;27.672;2023-02-26T15:31:41;97424.94;;;12.86;67.04
58373;BME280;44177;43.356;27.672;2023-02-26T15:34:12;97430.78;;;12.81;67.01
58373;BME280;44177;43.356;27.672;2023-02-26T15:36:43;97439.38;;;12.83;67.32
58373;BME280;44177;43.356;27.672;2023-02-26T15:39:09;97431.56;;;12.82;67.34
58373;BME280;44177;43.356;27.672;2023-02-26T15:41:35;97429.22;;;12.80;67.07
58373;BME280;44177;43.356;27.672;2023-02-26T15:44:06;97445.69;;;12.87;66.97
58373;BME280;44177;43.356;27.672;2023-02-26T15:46:47;97447.25;;;12.88;67.13
58373;BME280;44177;43.356;27.672;2023-02-26T15:49:37;97452.72;;;12.88;67.25
58373;BME280;44177;43.356;27.672;2023-02-26T15:52:05;97444.09;;;12.86;67.13
58373;BME280;44177;43.356;27.672;2023-02-26T15:54:39;97449.59;;;12.86;66.98
58373;BME280;44177;43.356;27.672;2023-02-26T15:57:06;97457.41;;;12.88;66.82
58373;BME280;44177;43.356;27.672;2023-02-26T15:59:43;97457.78;;;12.86;67.14
58373;BME280;44177;43.356;27.672;2023-02-26T16:02:19;97455.44;;;12.85;67.30
58373;BME280;44177;43.356;27.672;2023-02-26T16:04:45;97465.59;;;12.84;67.02
58373;BME280;44177;43.356;27.672;2023-02-26T16:07:11;97460.53;;;12.86;66.91
58373;BME280;44177;43.356;27.672;2023-02-26T16:09:40;97461.69;;;12.85;67.39
58373;BME280;44177;43.356;27.672;2023-02-26T16:12:11;97449.16;;;12.80;67.05
58373;BME280;44177;43.356;27.672;2023-02-26T16:14:39;97450.75;;;12.85;66.93
58373;BME280;44177;43.356;27.672;2023-02-26T16:17:07;97452.72;;;12.85;67.21
58373;BME280;44177;43.356;27.672;2023-02-26T16:19:38;97458.97;;;12.89;67.21
58373;BME280;44177;43.356;27.672;2023-02-26T16:22:25;97458.22;;;12.88;67.11